createdAt,value
2023-05-03T00:03:57.270Z,6.88
2023-05-03T00:08:54.555Z,6.88
2023-05-03T00:13:54.798Z,7.24
2023-05-03T00:18:53.061Z,6.34
2023-05-03T00:23:52.347Z,6.34
2023-05-03T00:28:51.592Z,6.34
2023-05-03T00:33:51.870Z,6.34
2023-05-03T00:38:51.137Z,6.69
2023-05-03T00:43:49.419Z,6.69
2023-05-03T00:48:48.685Z,5.79
2023-05-03T00:53:47.975Z,5.79
2023-05-03T00:58:47.234Z,5.79
2023-05-03T01:03:46.792Z,5.79
2023-05-03T01:08:46.744Z,5.79
2023-05-03T01:13:45.028Z,6.13
2023-05-03T01:18:44.351Z,5.79
2023-05-03T01:23:45.638Z,6.13
2023-05-03T01:28:43.889Z,6.13
2023-05-03T01:33:42.177Z,5.22
2023-05-03T01:38:42.449Z,5.22
2023-05-03T01:43:43.739Z,5.22
2023-05-03T01:48:40.986Z,5.56
2023-05-03T01:53:40.251Z,5.88
2023-05-03T01:58:38.566Z,5.56
2023-05-03T02:03:38.853Z,5.56
2023-05-03T02:08:39.142Z,5.56
2023-05-03T02:13:38.409Z,5.56
2023-05-03T02:18:35.694Z,5.56
2023-05-03T02:23:35.818Z,5.88
2023-05-03T02:28:35.157Z,5.88
2023-05-03T02:33:35.443Z,5.29
2023-05-03T02:38:32.709Z,5.29
2023-05-03T02:43:31.999Z,5.88
2023-05-03T02:48:32.280Z,6.20
2023-05-03T02:53:31.539Z,6.20
2023-05-03T02:58:30.781Z,6.20
2023-05-03T03:03:30.097Z,6.20
2023-05-03T03:08:29.225Z,6.20
2023-05-03T03:13:27.526Z,6.20
2023-05-03T03:18:25.845Z,6.20
2023-05-03T03:23:28.093Z,6.20
2023-05-03T03:28:24.352Z,6.20
2023-05-03T03:33:24.779Z,6.20
2023-05-03T03:38:24.900Z,5.60
2023-05-03T03:43:24.180Z,5.90
2023-05-03T03:48:23.438Z,5.60
2023-05-03T03:53:21.693Z,5.60
2023-05-03T03:58:20.990Z,5.90
2023-05-03T04:03:21.353Z,5.90
2023-05-03T04:08:20.425Z,5.90
2023-05-03T04:13:19.690Z,6.51
2023-05-03T04:18:17.990Z,5.60
2023-05-03T04:23:19.304Z,6.20
2023-05-03T04:28:16.550Z,6.20
2023-05-03T04:33:15.835Z,6.20
2023-05-03T04:38:15.092Z,6.20
2023-05-03T04:43:16.318Z,5.29
2023-05-03T04:48:13.819Z,5.29
2023-05-03T04:53:12.742Z,5.29
2023-05-03T04:58:11.994Z,5.29
2023-05-03T05:03:11.324Z,6.20
2023-05-03T05:08:11.537Z,6.20
2023-05-03T05:13:09.660Z,6.20
2023-05-03T05:18:08.939Z,6.20
2023-05-03T05:23:10.210Z,6.20
2023-05-03T05:28:08.465Z,6.20
2023-05-03T05:33:08.798Z,5.60
2023-05-03T05:38:04.988Z,5.29
2023-05-03T05:43:06.339Z,5.29
2023-05-03T05:48:04.700Z,6.20
2023-05-03T05:53:03.804Z,6.20
2023-05-03T05:58:03.078Z,5.60
2023-05-03T06:03:03.408Z,5.90
2023-05-03T06:08:01.525Z,6.20
2023-05-03T06:13:00.840Z,5.88
2023-05-03T06:18:01.142Z,5.88
2023-05-03T06:23:00.398Z,5.60
2023-05-03T06:27:58.753Z,5.90
2023-05-03T06:32:59.879Z,5.90
2023-05-03T06:37:56.959Z,5.90
2023-05-03T06:42:57.174Z,5.90
2023-05-03T06:47:55.452Z,6.20
2023-05-03T06:52:56.053Z,5.60
2023-05-03T06:57:53.880Z,5.90
2023-05-03T07:02:53.201Z,5.90
2023-05-03T07:07:52.314Z,5.90
2023-05-03T07:12:52.581Z,5.90
2023-05-03T07:17:50.873Z,5.90
2023-05-03T07:22:50.124Z,6.20
2023-05-03T07:27:49.392Z,5.88
2023-05-03T07:32:49.712Z,6.20
2023-05-03T07:37:48.012Z,6.51
2023-05-03T07:42:47.275Z,6.20
2023-05-03T07:47:47.591Z,5.88
2023-05-03T07:52:45.887Z,6.20
2023-05-03T07:57:45.157Z,5.88
2023-05-03T08:02:45.516Z,6.20
2023-05-03T08:07:44.610Z,6.51
2023-05-03T08:12:42.888Z,6.51
2023-05-03T08:17:44.196Z,6.51
2023-05-03T08:22:41.509Z,6.51
2023-05-03T08:27:40.809Z,6.20
2023-05-03T08:32:40.182Z,6.20
2023-05-03T08:37:40.290Z,6.20
2023-05-03T08:42:38.569Z,6.20
2023-05-03T08:47:39.868Z,6.20
2023-05-03T08:52:37.093Z,6.20
2023-05-03T08:57:36.332Z,7.11
2023-05-03T09:02:35.687Z,5.88
2023-05-03T09:07:34.916Z,6.20
2023-05-03T09:12:34.179Z,6.20
2023-05-03T09:17:35.456Z,6.20
2023-05-03T09:22:32.714Z,6.46
2023-05-03T09:27:32.012Z,6.46
2023-05-03T09:32:31.326Z,6.79
2023-05-03T09:37:31.595Z,6.79
2023-05-03T09:42:29.833Z,6.46
2023-05-03T09:47:31.995Z,6.46
2023-05-03T09:52:29.373Z,6.46
2023-05-03T09:57:27.692Z,5.79
2023-05-03T10:02:27.973Z,6.46
2023-05-03T10:07:27.250Z,6.13
2023-05-03T10:12:26.576Z,6.46
2023-05-03T10:17:35.385Z,6.46
2023-05-03T10:22:22.997Z,6.79
2023-05-03T10:27:24.314Z,6.79
2023-05-03T10:32:22.609Z,6.79
2023-05-03T10:37:21.867Z,6.79
2023-05-03T10:42:21.147Z,6.46
2023-05-03T10:47:20.447Z,7.03
2023-05-03T10:52:19.770Z,7.37
2023-05-03T10:57:20.049Z,7.70
2023-05-03T11:02:18.309Z,7.37
2023-05-03T11:07:17.573Z,7.37
2023-05-03T11:12:17.384Z,7.37
2023-05-03T11:17:17.051Z,7.70
2023-05-03T11:22:16.336Z,7.70
2023-05-03T11:27:14.572Z,7.37
2023-05-03T11:32:14.931Z,7.70
2023-05-03T11:37:13.171Z,7.70
2023-05-03T11:42:12.558Z,7.70
2023-05-03T11:47:11.803Z,7.37
2023-05-03T11:52:11.808Z,7.70
2023-05-03T11:57:10.063Z,7.70
2023-05-03T12:02:09.592Z,7.70
2023-05-03T12:07:10.655Z,7.70
2023-05-03T12:12:10.231Z,7.70
2023-05-03T12:17:07.864Z,7.70
2023-05-03T12:22:23.578Z,7.37
2023-05-03T12:27:08.231Z,8.27
2023-05-03T12:32:05.257Z,7.94
2023-05-03T12:37:06.207Z,7.94
2023-05-03T12:42:07.733Z,7.37
2023-05-03T12:47:02.909Z,7.94
2023-05-03T12:57:02.330Z,7.94
2023-05-03T13:07:00.807Z,7.59
2023-05-03T13:11:59.977Z,7.94
2023-05-03T13:16:59.047Z,7.94
2023-05-03T13:21:57.316Z,7.59
2023-05-03T13:26:56.598Z,7.59
2023-05-03T13:31:55.934Z,7.59
2023-05-03T13:36:55.029Z,7.59
2023-05-03T13:41:54.306Z,7.59
2023-05-03T13:46:55.614Z,7.59
2023-05-03T13:51:52.879Z,7.59
2023-05-03T13:56:52.184Z,7.59
2023-05-03T14:01:53.529Z,7.59
2023-05-03T14:06:50.827Z,7.59
2023-05-03T14:11:51.104Z,7.59
2023-05-03T14:16:49.484Z,7.94
2023-05-03T14:21:48.563Z,7.94
2023-05-03T14:26:47.885Z,7.94
2023-05-03T14:31:47.263Z,7.94
2023-05-03T14:36:47.370Z,7.94
2023-05-03T14:41:48.587Z,7.59
2023-05-03T14:46:44.890Z,7.59
2023-05-03T14:51:45.182Z,7.59
2023-05-03T14:56:44.716Z,7.59
2023-05-03T15:01:42.772Z,7.94
2023-05-03T15:06:42.074Z,7.59
2023-05-03T15:11:41.393Z,7.59
2023-05-03T15:16:42.706Z,7.94
2023-05-03T15:21:39.984Z,7.94
2023-05-03T15:26:38.261Z,7.94
2023-05-03T15:31:38.530Z,7.94
2023-05-03T15:36:37.804Z,7.94
2023-05-03T15:41:38.071Z,7.94
2023-05-03T15:46:37.448Z,7.94
2023-05-03T15:51:35.571Z,7.94
2023-05-03T15:56:35.834Z,7.94
2023-05-03T16:01:36.132Z,7.59
2023-05-03T16:06:33.373Z,7.59
2023-05-03T16:11:31.623Z,7.59
2023-05-03T16:16:31.945Z,7.59
2023-05-03T16:21:31.217Z,7.59
2023-05-03T16:26:30.530Z,7.59
2023-05-03T16:31:31.827Z,7.59
2023-05-03T16:36:30.076Z,7.94
2023-05-03T16:41:28.363Z,7.94
2023-05-03T16:46:27.651Z,7.94
2023-05-03T16:51:27.929Z,7.94
2023-05-03T16:56:27.226Z,7.94
2023-05-03T17:01:25.553Z,7.94
2023-05-03T17:06:26.615Z,7.94
2023-05-03T17:11:23.881Z,7.94
2023-05-03T17:16:23.199Z,7.94
2023-05-03T17:21:22.508Z,7.94
2023-05-03T17:26:21.790Z,8.27
2023-05-03T17:31:22.088Z,8.27
2023-05-03T17:36:23.332Z,8.27
2023-05-03T17:41:19.648Z,8.27
2023-05-03T17:46:18.956Z,8.27
2023-05-03T17:51:18.269Z,7.37
2023-05-03T17:56:18.729Z,7.70
2023-05-03T18:01:17.088Z,7.70
2023-05-03T18:06:16.342Z,7.70
2023-05-03T18:11:17.252Z,7.70
2023-05-03T18:16:15.585Z,7.70
2023-05-03T18:21:14.970Z,7.70
2023-05-03T18:26:13.915Z,7.70
2023-05-03T18:31:12.259Z,8.02
2023-05-03T18:36:12.628Z,7.70
2023-05-03T18:41:10.726Z,8.02
2023-05-03T18:46:10.213Z,8.02
2023-05-03T18:51:09.699Z,7.70
2023-05-03T18:56:08.949Z,7.70
2023-05-03T19:01:07.951Z,8.02
2023-05-03T19:06:08.671Z,8.02
2023-05-03T19:11:06.800Z,8.34
2023-05-03T19:16:06.992Z,8.34
2023-05-03T19:21:04.874Z,8.34
2023-05-03T19:26:04.957Z,8.34
2023-05-03T19:31:03.354Z,7.73
2023-05-03T19:36:04.535Z,7.73
2023-05-03T19:41:02.795Z,7.73
2023-05-03T19:46:01.995Z,7.43
2023-05-03T19:51:02.169Z,7.73
2023-05-03T19:56:00.247Z,8.04
2023-05-03T20:00:59.873Z,7.73
2023-05-03T20:05:58.824Z,8.04
2023-05-03T20:10:57.392Z,7.73
2023-05-03T20:15:57.378Z,7.73
2023-05-03T20:20:55.999Z,7.73
2023-05-03T20:25:56.967Z,7.73
2023-05-03T20:30:54.229Z,8.34
2023-05-03T20:35:55.505Z,8.34
2023-05-03T20:40:52.753Z,8.34
2023-05-03T20:45:54.057Z,7.73
2023-05-03T20:50:52.316Z,8.04
2023-05-03T20:55:50.647Z,7.41
2023-05-03T21:00:51.933Z,7.12
2023-05-03T21:05:49.179Z,7.12
2023-05-03T21:10:48.433Z,7.41
2023-05-03T21:15:47.685Z,7.41
2023-05-03T21:20:46.953Z,7.71
2023-05-03T21:25:48.204Z,7.71
2023-05-03T21:30:45.451Z,7.71
2023-05-03T21:35:44.731Z,7.71
2023-05-03T21:40:44.953Z,7.41
2023-05-03T21:45:43.272Z,7.41
2023-05-03T21:50:42.363Z,7.41
2023-05-03T21:55:42.628Z,7.41
2023-05-03T22:00:42.876Z,7.71
2023-05-03T22:05:42.136Z,7.41
2023-05-03T22:10:40.372Z,7.41
2023-05-03T22:15:39.700Z,7.41
2023-05-03T22:20:37.786Z,7.71
2023-05-03T22:25:37.035Z,7.41
2023-05-03T22:30:36.353Z,7.41
2023-05-03T22:35:36.583Z,7.71
2023-05-03T22:40:35.831Z,6.78
2023-05-03T22:45:35.112Z,7.41
2023-05-03T22:50:33.369Z,6.49
2023-05-03T22:55:31.635Z,6.78
2023-05-03T23:00:31.913Z,6.78
2023-05-03T23:05:31.181Z,6.78
2023-05-03T23:10:30.469Z,6.78
2023-05-03T23:15:29.736Z,6.78
2023-05-03T23:20:30.093Z,6.78
2023-05-03T23:25:30.166Z,6.78
2023-05-03T23:30:28.424Z,7.07
2023-05-03T23:35:28.675Z,6.78
2023-05-03T23:40:27.963Z,7.07
2023-05-03T23:45:25.228Z,6.78
2023-05-03T23:50:24.504Z,6.78
2023-05-03T23:55:23.775Z,6.78
